createdAt,value
2019-02-23T00:02:55.956Z,100.00
2019-02-23T00:07:59.385Z,100.00
2019-02-23T00:13:02.884Z,100.00
2019-02-23T00:18:06.316Z,100.00
2019-02-23T00:23:09.737Z,100.00
2019-02-23T00:28:13.165Z,100.00
2019-02-23T00:33:16.583Z,100.00
2019-02-23T00:38:20.002Z,100.00
2019-02-23T00:43:23.445Z,100.00
2019-02-23T00:48:26.867Z,100.00
2019-02-23T00:53:30.294Z,100.00
2019-02-23T00:58:33.726Z,100.00
2019-02-23T01:03:37.174Z,100.00
2019-02-23T01:08:40.691Z,100.00
2019-02-23T01:13:44.108Z,100.00
2019-02-23T01:18:47.540Z,100.00
2019-02-23T01:23:50.977Z,100.00
2019-02-23T01:28:54.413Z,100.00
2019-02-23T01:33:57.840Z,100.00
2019-02-23T01:39:01.269Z,100.00
2019-02-23T01:44:04.753Z,100.00
2019-02-23T01:49:08.229Z,100.00
2019-02-23T01:54:11.744Z,100.00
2019-02-23T01:59:15.215Z,100.00
2019-02-23T02:04:18.665Z,100.00
2019-02-23T02:09:22.452Z,100.00
2019-02-23T02:14:26.052Z,100.00
2019-02-23T02:19:29.473Z,100.00
2019-02-23T02:24:32.985Z,100.00
2019-02-23T02:29:36.403Z,100.00
2019-02-23T02:34:39.824Z,100.00
2019-02-23T02:39:43.269Z,100.00
2019-02-23T02:44:47.375Z,100.00
2019-02-23T02:49:50.906Z,100.00
2019-02-23T02:54:54.404Z,100.00
2019-02-23T02:59:57.843Z,100.00
2019-02-23T03:05:01.265Z,100.00
2019-02-23T03:10:05.826Z,100.00
2019-02-23T03:15:09.328Z,100.00
2019-02-23T03:20:12.773Z,100.00
2019-02-23T03:25:16.217Z,100.00
2019-02-23T03:30:19.676Z,100.00
2019-02-23T03:35:23.077Z,100.00
2019-02-23T03:40:26.510Z,100.00
2019-02-23T03:45:29.939Z,100.00
2019-02-23T03:50:33.368Z,100.00
2019-02-23T03:55:37.064Z,100.00
2019-02-23T04:00:40.486Z,100.00
2019-02-23T04:05:43.913Z,100.00
2019-02-23T04:10:47.356Z,100.00
2019-02-23T04:15:50.802Z,100.00
2019-02-23T04:21:01.724Z,100.00
2019-02-23T04:25:59.416Z,100.00
2019-02-23T04:31:02.827Z,100.00
2019-02-23T04:36:06.318Z,100.00
2019-02-23T04:41:09.739Z,100.00
2019-02-23T04:46:13.159Z,100.00
2019-02-23T04:51:16.596Z,100.00
2019-02-23T04:56:20.047Z,100.00
2019-02-23T05:01:23.495Z,100.00
2019-02-23T05:06:26.913Z,100.00
2019-02-23T05:11:30.357Z,100.00
2019-02-23T05:16:33.791Z,100.00
2019-02-23T05:21:37.233Z,100.00
2019-02-23T05:26:40.652Z,100.00
2019-02-23T05:31:44.141Z,100.00
2019-02-23T05:36:47.577Z,100.00
2019-02-23T05:41:51.011Z,100.00
2019-02-23T05:46:54.436Z,100.00
2019-02-23T05:51:57.927Z,100.00
2019-02-23T05:57:01.368Z,100.00
2019-02-23T06:02:04.856Z,100.00
2019-02-23T06:07:08.277Z,100.00
2019-02-23T06:12:11.736Z,100.00
2019-02-23T06:17:16.675Z,100.00
2019-02-23T06:22:20.304Z,100.00
2019-02-23T06:27:23.724Z,100.00
2019-02-23T06:32:27.148Z,99.00
2019-02-23T06:37:30.610Z,100.00
2019-02-23T06:42:34.045Z,98.91
2019-02-23T06:47:37.474Z,99.64
2019-02-23T06:52:40.978Z,98.81
2019-02-23T06:57:44.410Z,97.83
2019-02-23T07:02:47.823Z,98.83
2019-02-23T07:07:51.259Z,100.00
2019-02-23T07:12:54.681Z,97.17
2019-02-23T07:17:58.102Z,98.73
2019-02-23T07:23:01.529Z,96.43
2019-02-23T07:28:05.071Z,97.53
2019-02-23T07:33:08.497Z,97.73
2019-02-23T07:38:11.993Z,97.21
2019-02-23T07:43:15.435Z,96.84
2019-02-23T07:48:18.859Z,96.35
2019-02-23T07:53:22.271Z,97.36
2019-02-23T07:58:25.681Z,95.76
2019-02-23T08:03:29.135Z,95.44
2019-02-23T08:08:32.567Z,95.32
2019-02-23T08:13:35.991Z,93.77
2019-02-23T08:18:39.418Z,93.83
2019-02-23T08:23:42.849Z,94.97
2019-02-23T08:28:46.293Z,92.68
2019-02-23T08:33:49.733Z,91.49
2019-02-23T08:38:53.147Z,89.59
2019-02-23T08:43:56.575Z,90.03
2019-02-23T08:49:00.011Z,89.69
2019-02-23T08:54:03.445Z,86.37
2019-02-23T08:59:06.866Z,86.43
2019-02-23T09:04:10.286Z,86.08
2019-02-23T09:09:13.721Z,85.46
2019-02-23T09:14:17.154Z,83.32
2019-02-23T09:19:20.600Z,81.76
2019-02-23T09:24:24.056Z,78.96
2019-02-23T09:29:27.557Z,78.47
2019-02-23T09:34:30.984Z,75.39
2019-02-23T09:39:34.407Z,74.78
2019-02-23T09:44:37.905Z,76.02
2019-02-23T09:49:41.324Z,75.27
2019-02-23T09:54:44.783Z,76.12
2019-02-23T09:59:48.254Z,74.88
2019-02-23T10:04:51.684Z,72.49
2019-02-23T10:09:55.122Z,71.25
2019-02-23T10:14:58.541Z,67.87
2019-02-23T10:20:01.976Z,67.61
2019-02-23T10:25:06.624Z,68.95
2019-02-23T10:30:12.506Z,67.67
2019-02-23T10:35:15.927Z,65.71
2019-02-23T10:40:19.356Z,65.33
2019-02-23T10:45:22.785Z,64.36
2019-02-23T10:50:26.236Z,64.50
2019-02-23T10:55:29.745Z,63.42
2019-02-23T11:00:33.226Z,65.01
2019-02-23T11:05:36.681Z,64.50
2019-02-23T11:10:40.094Z,61.89
2019-02-23T11:15:43.663Z,61.06
2019-02-23T11:20:47.354Z,62.40
2019-02-23T11:25:50.770Z,62.25
2019-02-23T11:30:54.207Z,60.96
2019-02-23T11:35:57.627Z,59.95
2019-02-23T11:41:01.061Z,61.75
2019-02-23T11:46:04.555Z,61.80
2019-02-23T11:51:07.983Z,59.58
2019-02-23T11:56:11.423Z,61.10
2019-02-23T12:01:14.864Z,60.67
2019-02-23T12:06:18.292Z,58.43
2019-02-23T12:11:21.712Z,57.83
2019-02-23T12:16:25.141Z,54.96
2019-02-23T12:21:28.934Z,54.87
2019-02-23T12:26:32.372Z,55.50
2019-02-23T12:31:35.805Z,54.24
2019-02-23T12:36:39.272Z,52.60
2019-02-23T12:41:42.670Z,50.57
2019-02-23T12:46:46.104Z,49.19
2019-02-23T12:51:49.529Z,48.96
2019-02-23T12:56:52.958Z,50.79
2019-02-23T13:01:56.462Z,50.96
2019-02-23T13:06:59.882Z,50.07
2019-02-23T13:12:12.113Z,47.58
2019-02-23T13:17:24.019Z,46.09
2019-02-23T13:22:30.494Z,46.00
2019-02-23T13:27:56.201Z,44.99
2019-02-23T13:33:36.860Z,45.79
2019-02-23T13:38:55.888Z,44.40
2019-02-23T13:44:29.992Z,43.66
2019-02-23T13:49:38.949Z,45.17
2019-02-23T13:55:05.019Z,45.58
2019-02-23T14:00:23.613Z,46.79
2019-02-23T14:05:32.847Z,45.15
2019-02-23T14:11:09.328Z,44.50
2019-02-23T14:16:30.847Z,44.93
2019-02-23T14:22:05.385Z,43.33
2019-02-23T14:27:27.250Z,43.51
2019-02-23T14:32:36.661Z,43.70
2019-02-23T14:38:00.603Z,43.43
2019-02-23T14:43:33.074Z,42.58
2019-02-23T14:48:56.089Z,42.43
2019-02-23T14:54:17.800Z,42.45
2019-02-23T14:59:39.514Z,41.09
2019-02-23T15:05:09.501Z,40.81
2019-02-23T15:10:32.544Z,42.40
2019-02-23T15:15:44.787Z,40.30
2019-02-23T15:20:51.265Z,41.09
2019-02-23T15:26:21.875Z,40.77
2019-02-23T15:31:47.955Z,41.26
2019-02-23T15:37:00.611Z,42.86
2019-02-23T15:42:17.581Z,40.86
2019-02-23T15:47:26.734Z,41.58
2019-02-23T15:52:30.170Z,43.25
2019-02-23T15:57:33.622Z,42.04
2019-02-23T16:02:37.062Z,42.66
2019-02-23T16:07:40.496Z,43.23
2019-02-23T16:12:43.923Z,42.68
2019-02-23T16:17:47.367Z,45.10
2019-02-23T16:22:50.818Z,46.95
2019-02-23T16:27:55.073Z,46.49
2019-02-23T16:32:58.471Z,47.53
2019-02-23T16:38:01.944Z,47.00
2019-02-23T16:43:05.363Z,45.92
2019-02-23T16:48:08.838Z,48.72
2019-02-23T16:53:12.230Z,48.85
2019-02-23T16:58:15.728Z,50.29
2019-02-23T17:03:19.152Z,49.63
2019-02-23T17:08:22.585Z,50.64
2019-02-23T17:13:26.010Z,50.85
2019-02-23T17:18:29.420Z,49.99
2019-02-23T17:23:32.876Z,52.30
2019-02-23T17:28:36.299Z,52.79
2019-02-23T17:33:39.761Z,53.15
2019-02-23T17:38:44.833Z,54.15
2019-02-23T17:43:48.449Z,54.73
2019-02-23T17:48:51.886Z,55.18
2019-02-23T17:53:55.321Z,52.18
2019-02-23T17:58:58.753Z,52.50
2019-02-23T18:04:02.228Z,51.86
2019-02-23T18:09:06.302Z,52.55
2019-02-23T18:14:09.703Z,51.03
2019-02-23T18:19:13.113Z,52.93
2019-02-23T18:24:16.530Z,50.61
2019-02-23T18:29:20.038Z,51.96
2019-02-23T18:34:23.453Z,52.32
2019-02-23T18:39:26.870Z,52.10
2019-02-23T18:44:30.289Z,51.36
2019-02-23T18:49:33.722Z,52.72
2019-02-23T18:54:38.020Z,51.83
2019-02-23T18:59:41.441Z,54.50
2019-02-23T19:04:44.869Z,54.32
2019-02-23T19:09:48.337Z,54.98
2019-02-23T19:14:51.763Z,55.40
2019-02-23T19:19:55.196Z,54.77
2019-02-23T19:24:58.610Z,56.31
2019-02-23T19:30:02.036Z,57.60
2019-02-23T19:35:07.101Z,56.90
2019-02-23T19:40:10.613Z,58.59
2019-02-23T19:45:14.096Z,60.19
2019-02-23T19:50:27.194Z,61.05
2019-02-23T19:55:30.613Z,61.42
2019-02-23T20:00:34.035Z,62.18
2019-02-23T20:05:37.437Z,61.75
2019-02-23T20:10:40.868Z,63.06
2019-02-23T20:15:44.285Z,64.68
2019-02-23T20:20:47.707Z,65.22
2019-02-23T20:25:51.121Z,63.72
2019-02-23T20:30:54.538Z,64.13
2019-02-23T20:35:57.974Z,63.10
2019-02-23T20:41:01.400Z,64.42
2019-02-23T20:46:04.852Z,65.96
2019-02-23T20:51:08.264Z,67.47
2019-02-23T20:56:11.696Z,66.98
2019-02-23T21:01:15.132Z,67.24
2019-02-23T21:06:18.571Z,67.43
2019-02-23T21:11:22.030Z,67.16
2019-02-23T21:16:25.444Z,68.54
2019-02-23T21:21:28.876Z,67.93
2019-02-23T21:26:32.293Z,68.71
2019-02-23T21:31:35.751Z,68.99
2019-02-23T21:36:39.179Z,68.43
2019-02-23T21:41:42.605Z,70.12
2019-02-23T21:46:46.031Z,70.56
2019-02-23T21:51:49.465Z,69.55
2019-02-23T21:56:52.901Z,69.66
2019-02-23T22:02:08.142Z,70.80
2019-02-23T22:07:11.560Z,71.05
2019-02-23T22:12:14.986Z,70.55
2019-02-23T22:17:18.415Z,68.91
2019-02-23T22:22:21.845Z,70.69
2019-02-23T22:27:31.199Z,71.25
2019-02-23T22:32:30.430Z,71.15
2019-02-23T22:37:33.871Z,71.63
2019-02-23T22:42:37.302Z,69.80
2019-02-23T22:47:40.737Z,72.14
2019-02-23T22:52:44.174Z,71.18
2019-02-23T22:57:47.576Z,71.31
2019-02-23T23:02:51.014Z,71.27
2019-02-23T23:07:55.389Z,71.76
2019-02-23T23:12:58.945Z,72.51
2019-02-23T23:18:02.427Z,72.64
2019-02-23T23:23:05.807Z,73.06
2019-02-23T23:28:09.235Z,73.04
2019-02-23T23:33:12.658Z,73.78
2019-02-23T23:38:16.096Z,73.25
2019-02-23T23:43:19.514Z,75.63
2019-02-23T23:48:22.971Z,73.96
2019-02-23T23:53:26.377Z,73.48
2019-02-23T23:58:29.790Z,73.72
